VAAHVASU

Guest
Details From VAAH - AHMEDABAD
To VASU - SURAT
Flight Number -
Tags decoded
Created
Modified
Stats Distance 123 nm / 228 km
Max Altitude 0 ft / 0 m
Waypoints 3
Social Downloads 0
Likes 0
Share VATSIM

Download

Looking for another format? Having issues loading an existing format? Contact us
Advertisement - Login to hide

Notes

Requested: VAAH APANO VASU

Route

VAAH APANO VASU

ID Type Via Altitude Latitude Longitude Leg Dist Tot Dist Heading (true) Name
O VAAH APT - 0 ft / 0 m 23.07720˚ 72.63463˚ - 0 nm - AHMEDABAD
APANO FIX - 0 ft / 0 m 21.58400˚ 72.98269˚ 91 nm 91 nm 168° / 168° -
O VASU APT - 0 ft / 0 m 21.11406˚ 72.74179˚ 31 nm 123 nm 206° / 205° SURAT

Altitude Profile

Advertisement - Login to hide

VAAH

Details ICAO VAAH (AMD)
Name AHMEDABAD
Region India
Timezone Asia/Kolkata (UTC+5.5)
Stats Elevation 189 ft / 58 m (AMSL)
Location 23.077196° 72.634632°
Runways 1
Magnetic Variation 0.478° E

METAR

VAAH 131300Z 00000KT 4000 FU NSC 21/10 Q1014 NOSIG

Decode

TAF

TAF VAAH 131100Z 1312/1418 02005KT 4000 FUHZ BECMG 1401/1403 35003KT 2000 HZBR BECMG 1404/1406 04008KT 5000 FUHZ BECMG 1412/1414 02005KT 4000 FU HZ

Decode

Departure Runways

ID Width Length Bearing (true) Bearing (mag) Surface Threshold Offset Overrun Length
05 150 ft / 46 m 11,464 ft / 3,494 m 44.55° 44.07° Asphalt 0 ft / 0 m 210 ft / 64 m
23 150 ft / 46 m 11,464 ft / 3,494 m 224.56° 224.08° Asphalt 0 ft / 0 m 195 ft / 59 m

VASU

Details ICAO VASU (STV)
Name SURAT
Region India
Timezone Asia/Kolkata (UTC+5.5)
Stats Elevation 16 ft / 5 m (AMSL)
Location 21.114060° 72.741790°
Runways 1
Magnetic Variation 0.150° E

METAR

VASU 131230Z 34003KT 6000 NSC 22/12 Q1013

Decode

TAF

Not found

Destination Runways

ID Width Length Bearing (true) Bearing (mag) Surface Threshold Offset Overrun Length
04 100 ft / 30 m 3,596 ft / 1,096 m 42.70° 42.55° Asphalt 0 ft / 0 m 0 ft / 0 m
22 100 ft / 30 m 3,596 ft / 1,096 m 222.70° 222.55° Asphalt 0 ft / 0 m 0 ft / 0 m